createdAt,value
2023-05-12T00:00:11.639Z,12.72
2023-05-12T00:03:04.754Z,12.67
2023-05-12T00:05:33.551Z,12.60
2023-05-12T00:08:02.481Z,12.56
2023-05-12T00:10:32.681Z,12.54
2023-05-12T00:13:01.689Z,12.51
2023-05-12T00:15:30.558Z,12.49
2023-05-12T00:17:59.546Z,12.45
2023-05-12T00:20:28.230Z,12.42
2023-05-12T00:22:57.242Z,12.39
2023-05-12T00:25:25.878Z,12.34
2023-05-12T00:27:56.230Z,12.32
2023-05-12T00:30:25.082Z,12.26
2023-05-12T00:32:54.017Z,12.25
2023-05-12T00:35:22.906Z,12.24
2023-05-12T00:37:51.915Z,12.22
2023-05-12T00:40:21.147Z,12.18
2023-05-12T00:42:50.778Z,12.16
2023-05-12T00:45:21.922Z,12.16
2023-05-12T00:47:53.531Z,12.11
2023-05-12T00:50:22.870Z,12.10
2023-05-12T00:52:53.129Z,12.06
2023-05-12T00:55:22.105Z,12.03
2023-05-12T00:57:51.645Z,12.07
2023-05-12T01:00:22.557Z,12.03
2023-05-12T01:02:51.974Z,12.01
2023-05-12T01:05:20.924Z,12.01
2023-05-12T01:07:51.107Z,12.00
2023-05-12T01:10:21.999Z,11.95
2023-05-12T01:12:51.186Z,11.91
2023-05-12T01:15:22.526Z,11.83
2023-05-12T01:18:00.200Z,11.86
2023-05-12T01:20:31.544Z,11.83
2023-05-12T01:23:01.660Z,11.77
2023-05-12T01:25:35.410Z,11.77
2023-05-12T01:28:07.682Z,11.76
2023-05-12T01:30:42.809Z,11.75
2023-05-12T01:33:14.262Z,11.73
2023-05-12T01:35:43.329Z,11.73
2023-05-12T01:38:12.650Z,11.72
2023-05-12T01:40:42.884Z,11.67
2023-05-12T01:43:13.255Z,11.70
2023-05-12T01:45:41.946Z,11.66
2023-05-12T01:48:11.687Z,11.65
2023-05-12T01:50:40.328Z,11.68
2023-05-12T01:53:13.635Z,11.61
2023-05-12T01:55:42.377Z,11.62
2023-05-12T01:58:12.843Z,11.58
2023-05-12T02:00:41.532Z,11.56
2023-05-12T02:03:16.636Z,11.55
2023-05-12T02:05:45.561Z,11.54
2023-05-12T02:08:14.525Z,11.50
2023-05-12T02:10:43.441Z,11.47
2023-05-12T02:13:14.057Z,11.42
2023-05-12T02:15:42.944Z,11.46
2023-05-12T02:18:11.979Z,11.40
2023-05-12T02:20:41.325Z,11.36
2023-05-12T02:23:11.472Z,11.34
2023-05-12T02:25:40.220Z,11.31
2023-05-12T02:28:11.001Z,11.32
2023-05-12T02:30:47.029Z,11.29
2023-05-12T02:33:16.214Z,11.26
2023-05-12T02:35:45.735Z,11.22
2023-05-12T02:38:15.148Z,11.20
2023-05-12T02:40:44.303Z,11.13
2023-05-12T02:43:13.337Z,11.12
2023-05-12T02:45:43.539Z,11.09
2023-05-12T02:48:12.825Z,11.05
2023-05-12T02:50:41.855Z,11.06
2023-05-12T02:53:10.889Z,11.03
2023-05-12T02:55:40.262Z,11.04
2023-05-12T02:58:10.237Z,11.04
2023-05-12T03:00:39.026Z,10.97
2023-05-12T03:03:09.556Z,11.03
2023-05-12T03:05:38.371Z,10.98
2023-05-12T03:08:07.442Z,11.01
2023-05-12T03:10:36.495Z,10.98
2023-05-12T03:13:05.507Z,11.01
2023-05-12T03:15:34.151Z,11.01
2023-05-12T03:18:03.275Z,11.02
2023-05-12T03:20:33.425Z,11.02
2023-05-12T03:23:02.420Z,11.01
2023-05-12T03:25:31.280Z,11.01
2023-05-12T03:28:00.270Z,11.04
2023-05-12T03:30:28.986Z,11.08
2023-05-12T03:32:57.975Z,11.11
2023-05-12T03:35:26.993Z,11.12
2023-05-12T03:37:57.556Z,11.13
2023-05-12T03:40:26.843Z,11.15
2023-05-12T03:42:55.806Z,11.19
2023-05-12T03:45:24.475Z,11.16
2023-05-12T03:47:53.475Z,11.22
2023-05-12T03:50:22.455Z,11.20
2023-05-12T03:52:55.954Z,11.17
2023-05-12T03:55:26.278Z,11.23
2023-05-12T03:57:55.261Z,11.26
2023-05-12T04:00:24.080Z,11.35
2023-05-12T04:02:53.063Z,11.38
2023-05-12T04:05:22.009Z,11.43
2023-05-12T04:07:51.209Z,11.46
2023-05-12T04:10:20.784Z,11.51
2023-05-12T04:12:51.304Z,11.53
2023-05-12T04:15:21.210Z,11.58
2023-05-12T04:17:51.169Z,11.59
2023-05-12T04:20:21.572Z,11.64
2023-05-12T04:22:51.522Z,11.69
2023-05-12T04:25:20.374Z,11.71
2023-05-12T04:27:50.689Z,11.78
2023-05-12T04:30:19.803Z,11.87
2023-05-12T04:32:49.573Z,11.86
2023-05-12T04:35:18.773Z,11.97
2023-05-12T04:37:47.699Z,12.05
2023-05-12T04:40:16.744Z,12.11
2023-05-12T04:42:45.672Z,12.17
2023-05-12T04:45:17.616Z,12.27
2023-05-12T04:47:46.959Z,12.37
2023-05-12T04:50:15.798Z,12.40
2023-05-12T04:52:44.666Z,12.55
2023-05-12T04:55:14.146Z,12.61
2023-05-12T04:57:43.637Z,12.70
2023-05-12T05:00:15.037Z,12.81
2023-05-12T05:02:47.454Z,12.89
2023-05-12T05:05:16.811Z,12.97
2023-05-12T05:07:45.809Z,13.07
2023-05-12T05:10:15.413Z,13.20
2023-05-12T05:12:46.305Z,13.36
2023-05-12T05:15:15.106Z,13.50
2023-05-12T05:17:49.197Z,13.64
2023-05-12T05:20:20.022Z,13.76
2023-05-12T05:22:49.564Z,13.91
2023-05-12T05:25:19.293Z,14.06
2023-05-12T05:27:48.316Z,14.16
2023-05-12T05:30:17.452Z,14.41
2023-05-12T05:32:47.459Z,14.63
2023-05-12T05:35:16.699Z,14.95
2023-05-12T05:37:53.764Z,15.26
2023-05-12T05:40:23.353Z,15.55
2023-05-12T05:42:52.832Z,15.80
2023-05-12T05:45:21.772Z,16.11
2023-05-12T05:47:53.258Z,16.31
2023-05-12T05:50:23.235Z,16.58
2023-05-12T05:52:55.311Z,16.88
2023-05-12T05:55:25.149Z,17.04
2023-05-12T05:57:54.438Z,17.23
2023-05-12T06:00:24.130Z,17.34
2023-05-12T06:02:54.372Z,17.50
2023-05-12T06:05:24.186Z,17.64
2023-05-12T06:07:54.724Z,17.80
2023-05-12T06:10:23.718Z,17.75
2023-05-12T06:12:52.804Z,17.94
2023-05-12T06:15:23.275Z,18.03
2023-05-12T06:17:52.395Z,18.19
2023-05-12T06:20:23.285Z,18.22
2023-05-12T06:22:53.221Z,18.46
2023-05-12T06:25:23.295Z,18.56
2023-05-12T06:27:53.256Z,18.67
2023-05-12T06:30:22.052Z,18.79
2023-05-12T06:32:51.046Z,18.90
2023-05-12T06:35:19.947Z,19.13
2023-05-12T06:37:50.866Z,19.29
2023-05-12T06:40:19.775Z,19.53
2023-05-12T06:42:50.468Z,19.59
2023-05-12T06:45:23.657Z,19.70
2023-05-12T06:47:53.852Z,19.85
2023-05-12T06:50:22.539Z,20.09
2023-05-12T06:52:54.559Z,20.24
2023-05-12T06:55:24.148Z,20.54
2023-05-12T06:57:56.167Z,20.57
2023-05-12T07:00:25.992Z,20.49
2023-05-12T07:02:55.178Z,20.40
2023-05-12T07:05:24.390Z,20.59
2023-05-12T07:07:53.699Z,20.73
2023-05-12T07:10:22.426Z,20.88
2023-05-12T07:12:51.419Z,20.84
2023-05-12T07:15:21.825Z,20.99
2023-05-12T07:17:51.148Z,20.91
2023-05-12T07:20:19.829Z,20.90
2023-05-12T07:22:48.959Z,20.73
2023-05-12T07:25:18.111Z,20.77
2023-05-12T07:27:47.340Z,20.58
2023-05-12T07:30:16.450Z,20.61
2023-05-12T07:32:47.076Z,20.45
2023-05-12T07:35:15.920Z,20.53
2023-05-12T07:37:44.925Z,20.40
2023-05-12T07:40:13.958Z,20.18
2023-05-12T07:42:43.205Z,19.96
2023-05-12T07:45:12.495Z,20.20
2023-05-12T07:47:42.066Z,20.36
2023-05-12T07:50:12.181Z,20.35
2023-05-12T07:52:49.209Z,20.45
2023-05-12T07:55:18.882Z,20.55
2023-05-12T07:57:48.557Z,20.61
2023-05-12T08:00:18.249Z,20.64
2023-05-12T08:02:47.485Z,20.60
2023-05-12T08:05:18.182Z,20.53
2023-05-12T08:07:47.333Z,20.53
2023-05-12T08:10:16.011Z,20.44
2023-05-12T08:12:44.991Z,20.45
2023-05-12T08:15:13.758Z,20.70
2023-05-12T08:17:42.779Z,20.92
2023-05-12T08:20:13.144Z,20.88
2023-05-12T08:22:44.148Z,20.87
2023-05-12T08:25:12.969Z,20.89
2023-05-12T08:27:42.016Z,20.73
2023-05-12T08:30:12.351Z,20.68
2023-05-12T08:32:41.502Z,20.76
2023-05-12T08:35:10.362Z,20.73
2023-05-12T08:37:39.450Z,20.69
2023-05-12T08:40:19.427Z,20.78
2023-05-12T08:43:02.370Z,20.62
2023-05-12T08:45:34.208Z,20.77
2023-05-12T08:48:06.755Z,20.62
2023-05-12T08:50:39.275Z,20.68
2023-05-12T08:53:12.656Z,20.87
2023-05-12T08:55:57.107Z,20.98
2023-05-12T08:58:41.084Z,21.11
2023-05-12T09:01:14.903Z,21.20
2023-05-12T09:03:44.148Z,21.01
2023-05-12T09:06:14.421Z,21.15
2023-05-12T09:08:44.970Z,21.27
2023-05-12T09:11:15.587Z,21.47
2023-05-12T09:13:55.855Z,21.38
2023-05-12T09:16:26.828Z,21.23
2023-05-12T09:18:58.849Z,21.18
2023-05-12T09:21:28.809Z,21.25
2023-05-12T09:24:00.032Z,21.28
2023-05-12T09:26:30.574Z,21.44
2023-05-12T09:29:08.578Z,21.84
2023-05-12T09:31:38.051Z,22.01
2023-05-12T09:34:09.996Z,22.37
2023-05-12T09:36:38.755Z,22.67
2023-05-12T09:39:09.998Z,22.92
2023-05-12T09:41:41.890Z,23.13
2023-05-12T09:44:16.407Z,23.40
2023-05-12T09:46:45.815Z,23.77
2023-05-12T09:49:19.159Z,24.01
2023-05-12T09:51:52.500Z,23.93
2023-05-12T09:54:28.418Z,23.86
2023-05-12T09:57:01.523Z,23.75
2023-05-12T09:59:33.542Z,23.86
2023-05-12T10:02:06.537Z,24.29
2023-05-12T10:04:45.743Z,24.18
2023-05-12T10:07:17.473Z,24.38
2023-05-12T10:09:49.962Z,24.80
2023-05-12T10:12:20.390Z,25.03
2023-05-12T10:14:50.327Z,25.46
2023-05-12T10:17:21.204Z,25.99
2023-05-12T10:19:52.709Z,26.75
2023-05-12T10:22:22.832Z,26.79
2023-05-12T10:24:53.064Z,26.65
2023-05-12T10:27:26.025Z,26.90
2023-05-12T10:29:56.296Z,26.94
2023-05-12T10:32:25.161Z,26.75
2023-05-12T10:34:55.032Z,26.41
2023-05-12T10:37:24.985Z,26.05
2023-05-12T10:39:54.367Z,25.90
2023-05-12T10:42:26.473Z,25.95
2023-05-12T10:44:57.402Z,25.60
2023-05-12T10:47:27.806Z,24.77
2023-05-12T10:49:59.507Z,25.01
2023-05-12T10:52:28.379Z,25.09
2023-05-12T10:55:03.249Z,25.55
2023-05-12T10:57:34.813Z,25.11
2023-05-12T11:00:05.189Z,24.67
2023-05-12T11:02:37.214Z,24.43
2023-05-12T11:05:13.512Z,24.56
2023-05-12T11:07:50.032Z,24.32
2023-05-12T11:10:21.172Z,24.10
2023-05-12T11:12:54.188Z,24.67
2023-05-12T11:15:24.039Z,25.06
2023-05-12T11:17:53.240Z,24.97
2023-05-12T11:20:28.071Z,24.85
2023-05-12T11:22:58.494Z,25.10
2023-05-12T11:25:29.206Z,24.99
2023-05-12T11:27:59.636Z,24.81
2023-05-12T11:30:28.710Z,24.78
2023-05-12T11:33:03.844Z,24.87
2023-05-12T11:35:33.371Z,25.16
2023-05-12T11:38:03.034Z,25.52
2023-05-12T11:40:32.142Z,25.34
2023-05-12T11:43:11.620Z,25.50
2023-05-12T11:45:40.602Z,25.27
2023-05-12T11:48:12.636Z,25.09
2023-05-12T11:50:44.402Z,25.00
2023-05-12T11:53:15.740Z,25.35
2023-05-12T11:55:52.887Z,24.98
2023-05-12T11:58:26.708Z,25.07
2023-05-12T12:00:57.333Z,25.38
2023-05-12T12:03:26.986Z,24.90
2023-05-12T12:06:01.534Z,24.24
2023-05-12T12:08:31.071Z,23.77
2023-05-12T12:11:02.738Z,23.41
2023-05-12T12:13:33.710Z,23.36
2023-05-12T12:16:02.756Z,23.17
2023-05-12T12:18:31.470Z,22.87
2023-05-12T12:21:00.444Z,22.46
2023-05-12T12:23:33.327Z,22.34
2023-05-12T12:26:09.602Z,22.31
2023-05-12T12:28:39.737Z,22.39
2023-05-12T12:31:08.766Z,22.34
2023-05-12T12:33:37.453Z,22.34
2023-05-12T12:36:07.168Z,22.33
2023-05-12T12:38:36.054Z,22.12
2023-05-12T12:41:05.394Z,22.02
2023-05-12T12:43:34.054Z,21.91
2023-05-12T12:46:04.407Z,21.97
2023-05-12T12:48:33.845Z,21.97
2023-05-12T12:51:03.184Z,21.92
2023-05-12T12:53:31.901Z,21.85
2023-05-12T12:56:00.858Z,21.72
2023-05-12T12:58:29.553Z,21.73
2023-05-12T13:00:58.579Z,21.69
2023-05-12T13:03:28.766Z,21.74
2023-05-12T13:05:57.716Z,21.80
2023-05-12T13:08:26.419Z,21.63
2023-05-12T13:10:56.281Z,21.84
2023-05-12T13:13:25.519Z,21.96
2023-05-12T13:15:54.648Z,21.74
2023-05-12T13:18:23.388Z,21.92
2023-05-12T13:20:54.223Z,21.91
2023-05-12T13:23:22.968Z,21.70
2023-05-12T13:25:52.131Z,21.81
2023-05-12T13:28:20.845Z,22.06
2023-05-12T13:30:49.854Z,22.21
2023-05-12T13:33:18.586Z,22.20
2023-05-12T13:35:47.974Z,22.22
2023-05-12T13:38:18.288Z,22.29
2023-05-12T13:40:47.472Z,22.25
2023-05-12T13:43:16.188Z,22.30
2023-05-12T13:45:45.298Z,22.40
2023-05-12T13:48:14.358Z,22.45
2023-05-12T13:50:43.505Z,22.36
2023-05-12T13:53:12.659Z,22.38
2023-05-12T13:55:44.560Z,22.30
2023-05-12T13:58:13.466Z,22.18
2023-05-12T14:00:42.522Z,22.21
2023-05-12T14:03:11.232Z,22.24
2023-05-12T14:05:40.467Z,22.39
2023-05-12T14:08:09.226Z,22.58
2023-05-12T14:10:38.252Z,22.53
2023-05-12T14:13:08.655Z,22.49
2023-05-12T14:15:47.996Z,22.54
2023-05-12T14:18:17.813Z,22.64
2023-05-12T14:20:47.065Z,22.58
2023-05-12T14:23:15.775Z,22.46
2023-05-12T14:25:44.781Z,22.44
2023-05-12T14:28:15.009Z,22.30
2023-05-12T14:30:45.301Z,22.11
2023-05-12T14:33:14.331Z,21.82
2023-05-12T14:35:50.284Z,21.70
2023-05-12T14:38:24.978Z,21.62
2023-05-12T14:40:54.020Z,21.69
2023-05-12T14:43:24.158Z,21.70
2023-05-12T14:45:54.694Z,21.50
2023-05-12T14:48:26.086Z,21.41
2023-05-12T14:50:55.730Z,21.62
2023-05-12T14:53:25.258Z,21.67
2023-05-12T14:55:54.244Z,21.69
2023-05-12T14:58:25.153Z,21.70
2023-05-12T15:00:54.702Z,21.65
2023-05-12T15:03:23.679Z,21.65
2023-05-12T15:06:05.600Z,21.57
2023-05-12T15:08:35.958Z,21.68
2023-05-12T15:11:05.240Z,21.76
2023-05-12T15:13:35.298Z,21.84
2023-05-12T15:16:04.853Z,21.85
2023-05-12T15:18:33.601Z,21.88
2023-05-12T15:21:02.574Z,21.81
2023-05-12T15:23:31.336Z,21.82
2023-05-12T15:26:06.904Z,21.80
2023-05-12T15:28:45.620Z,21.82
2023-05-12T15:31:14.735Z,21.74
2023-05-12T15:33:43.632Z,21.58
2023-05-12T15:36:13.520Z,21.52
2023-05-12T15:38:42.565Z,21.45
2023-05-12T15:41:11.569Z,21.51
2023-05-12T15:43:41.112Z,21.64
2023-05-12T15:46:11.937Z,21.73
2023-05-12T15:48:40.711Z,21.68
2023-05-12T15:51:09.783Z,21.61
2023-05-12T15:53:38.416Z,21.42
2023-05-12T15:56:09.083Z,21.24
2023-05-12T15:58:37.913Z,21.11
2023-05-12T16:01:06.962Z,21.12
2023-05-12T16:03:37.777Z,21.17
2023-05-12T16:06:08.801Z,21.07
2023-05-12T16:08:37.685Z,21.01
2023-05-12T16:11:06.774Z,21.09
2023-05-12T16:13:35.522Z,21.16
2023-05-12T16:16:05.281Z,21.26
2023-05-12T16:18:34.212Z,21.16
2023-05-12T16:21:05.322Z,21.01
2023-05-12T16:23:34.203Z,20.98
2023-05-12T16:26:03.243Z,20.94
2023-05-12T16:28:34.492Z,20.94
2023-05-12T16:31:04.583Z,21.00
2023-05-12T16:33:33.329Z,21.00
2023-05-12T16:36:02.211Z,21.03
2023-05-12T16:38:32.521Z,21.02
2023-05-12T16:41:01.744Z,21.06
2023-05-12T16:43:30.401Z,20.93
2023-05-12T16:46:04.248Z,20.90
2023-05-12T16:48:34.825Z,20.93
2023-05-12T16:51:06.914Z,20.97
2023-05-12T16:53:37.672Z,20.92
2023-05-12T16:56:07.408Z,20.88
2023-05-12T16:58:36.281Z,20.82
2023-05-12T17:01:05.591Z,20.79
2023-05-12T17:03:34.545Z,20.72
2023-05-12T17:06:04.092Z,20.71
2023-05-12T17:08:35.475Z,20.70
2023-05-12T17:11:06.535Z,20.69
2023-05-12T17:13:38.136Z,20.64
2023-05-12T17:16:07.966Z,20.54
2023-05-12T17:21:09.086Z,20.45
2023-05-12T17:23:38.028Z,20.44
2023-05-12T17:26:08.261Z,20.37
2023-05-12T17:28:37.347Z,20.31
2023-05-12T17:31:07.521Z,20.27
2023-05-12T17:33:36.876Z,20.20
2023-05-12T17:36:12.520Z,20.17
2023-05-12T17:38:43.929Z,20.11
2023-05-12T17:41:14.367Z,20.08
2023-05-12T17:43:43.364Z,20.04
2023-05-12T17:46:12.164Z,19.99
2023-05-12T17:48:41.186Z,19.91
2023-05-12T17:51:09.942Z,19.84
2023-05-12T17:53:38.946Z,19.79
2023-05-12T17:56:08.010Z,19.70
2023-05-12T17:58:38.567Z,19.63
2023-05-12T18:01:07.515Z,19.59
2023-05-12T18:03:36.866Z,19.52
2023-05-12T18:06:05.910Z,19.46
2023-05-12T18:08:35.132Z,19.42
2023-05-12T18:11:04.011Z,19.37
2023-05-12T18:13:32.964Z,19.33
2023-05-12T18:16:03.040Z,19.27
2023-05-12T18:18:32.503Z,19.18
2023-05-12T18:21:02.134Z,19.06
2023-05-12T18:23:31.155Z,18.93
2023-05-12T18:25:59.800Z,18.79
2023-05-12T18:28:29.077Z,18.66
2023-05-12T18:31:00.317Z,18.53
2023-05-12T18:33:35.012Z,18.38
2023-05-12T18:36:04.086Z,18.24
2023-05-12T18:38:33.975Z,18.07
2023-05-12T18:41:02.704Z,17.91
2023-05-12T18:43:31.728Z,17.74
2023-05-12T18:46:00.549Z,17.62
2023-05-12T18:48:29.585Z,17.47
2023-05-12T18:50:59.860Z,17.35
2023-05-12T18:53:29.047Z,17.23
2023-05-12T18:55:57.867Z,17.14
2023-05-12T18:58:27.160Z,17.01
2023-05-12T19:00:56.074Z,16.96
2023-05-12T19:03:25.231Z,16.91
2023-05-12T19:05:53.983Z,16.90
2023-05-12T19:08:24.406Z,16.87
2023-05-12T19:10:53.260Z,16.82
2023-05-12T19:13:22.533Z,16.75
2023-05-12T19:15:51.223Z,16.66
2023-05-12T19:18:20.270Z,16.59
2023-05-12T19:20:49.308Z,16.50
2023-05-12T19:23:18.410Z,16.42
2023-05-12T19:25:48.511Z,16.32
2023-05-12T19:28:17.498Z,16.17
2023-05-12T19:30:46.200Z,16.06
2023-05-12T19:33:17.350Z,15.97
2023-05-12T19:35:46.392Z,15.88
2023-05-12T19:38:15.569Z,15.80
2023-05-12T19:40:44.236Z,15.73
2023-05-12T19:43:14.804Z,15.65
2023-05-12T19:45:43.637Z,15.63
2023-05-12T19:48:12.869Z,15.55
2023-05-12T19:50:41.634Z,15.50
2023-05-12T19:53:10.625Z,15.48
2023-05-12T19:55:39.408Z,15.44
2023-05-12T19:58:08.943Z,15.40
2023-05-12T20:00:39.638Z,15.33
2023-05-12T20:03:09.005Z,15.26
2023-05-12T20:05:38.076Z,15.20
2023-05-12T20:08:07.886Z,15.13
2023-05-12T20:10:36.820Z,15.09
2023-05-12T20:13:05.783Z,15.05
2023-05-12T20:15:35.141Z,14.99
2023-05-12T20:18:05.952Z,14.91
2023-05-12T20:20:34.665Z,14.84
2023-05-12T20:23:04.437Z,14.78
2023-05-12T20:25:33.592Z,14.73
2023-05-12T20:28:03.070Z,14.69
2023-05-12T20:30:31.764Z,14.68
2023-05-12T20:33:00.733Z,14.64
2023-05-12T20:35:30.907Z,14.61
2023-05-12T20:37:59.950Z,14.56
2023-05-12T20:40:28.776Z,14.53
2023-05-12T20:42:57.756Z,14.49
2023-05-12T20:45:26.754Z,14.45
2023-05-12T20:47:55.866Z,14.43
2023-05-12T20:50:24.832Z,14.38
2023-05-12T20:52:55.121Z,14.35
2023-05-12T20:55:25.495Z,14.32
2023-05-12T20:57:55.325Z,14.31
2023-05-12T21:00:24.123Z,14.30
2023-05-12T21:02:53.800Z,14.24
2023-05-12T21:05:22.862Z,14.22
2023-05-12T21:07:51.975Z,14.18
2023-05-12T21:10:22.752Z,14.15
2023-05-12T21:12:52.099Z,14.15
2023-05-12T21:15:20.958Z,14.12
2023-05-12T21:17:49.921Z,14.09
2023-05-12T21:20:18.964Z,14.06
2023-05-12T21:22:47.930Z,14.03
2023-05-12T21:25:16.710Z,13.97
2023-05-12T21:27:47.487Z,13.96
2023-05-12T21:30:16.438Z,13.91
2023-05-12T21:32:45.475Z,13.89
2023-05-12T21:35:14.271Z,13.83
2023-05-12T21:38:01.407Z,13.83
2023-05-12T21:40:30.200Z,13.80
2023-05-12T21:43:00.950Z,13.79
2023-05-12T21:45:30.059Z,13.75
2023-05-12T21:47:59.075Z,13.72
2023-05-12T21:50:27.958Z,13.70
2023-05-12T21:52:56.897Z,13.68
2023-05-12T21:55:26.407Z,13.65
2023-05-12T21:57:55.375Z,13.62
2023-05-12T22:00:26.328Z,13.59
2023-05-12T22:02:55.464Z,13.57
2023-05-12T22:05:24.396Z,13.53
2023-05-12T22:07:53.451Z,13.47
2023-05-12T22:10:22.331Z,13.44
2023-05-12T22:12:51.591Z,13.39
2023-05-12T22:15:20.353Z,13.33
2023-05-12T22:17:50.615Z,13.30
2023-05-12T22:20:19.656Z,13.26
2023-05-12T22:22:48.772Z,13.24
2023-05-12T22:25:17.477Z,13.22
2023-05-12T22:27:46.533Z,13.19
2023-05-12T22:30:15.940Z,13.16
2023-05-12T22:32:45.385Z,13.12
2023-05-12T22:35:16.353Z,13.12
2023-05-12T22:37:45.393Z,13.10
2023-05-12T22:40:14.387Z,13.07
2023-05-12T22:42:43.643Z,13.05
2023-05-12T22:45:12.622Z,13.04
2023-05-12T22:47:41.588Z,13.04
2023-05-12T22:50:11.349Z,13.07
2023-05-12T22:52:41.713Z,13.06
2023-05-12T22:55:11.584Z,13.04
2023-05-12T22:57:41.073Z,13.05
2023-05-12T23:00:11.650Z,13.03
2023-05-12T23:02:40.717Z,13.00
2023-05-12T23:05:10.688Z,12.94
2023-05-12T23:07:40.997Z,12.91
2023-05-12T23:10:10.691Z,12.89
2023-05-12T23:12:40.285Z,12.87
2023-05-12T23:15:10.310Z,12.83
2023-05-12T23:17:39.360Z,12.80
2023-05-12T23:20:10.023Z,12.78
2023-05-12T23:22:39.051Z,12.77
2023-05-12T23:25:10.659Z,12.77
2023-05-12T23:27:39.790Z,12.74
2023-05-12T23:30:09.734Z,12.72
2023-05-12T23:32:38.958Z,12.72
2023-05-12T23:35:09.557Z,12.70
2023-05-12T23:37:38.551Z,12.69
2023-05-12T23:40:10.646Z,12.62
2023-05-12T23:42:39.566Z,12.59
2023-05-12T23:45:09.637Z,12.57
2023-05-12T23:47:38.718Z,12.53
2023-05-12T23:50:09.365Z,12.51
2023-05-12T23:52:38.564Z,12.53
2023-05-12T23:55:10.054Z,12.57
2023-05-12T23:57:40.131Z,12.56
